sensor_id;sensor_type;location;lat;lon;timestamp;temperature;humidity
5023;DHT22;2530;47.990;7.866;2022-12-07T00:01:28;4.30;99.90
5023;DHT22;2530;47.990;7.866;2022-12-07T00:03:55;4.30;99.90
5023;DHT22;2530;47.990;7.866;2022-12-07T00:06:30;4.10;99.90
5023;DHT22;2530;47.990;7.866;2022-12-07T00:08:56;4.10;99.90
5023;DHT22;2530;47.990;7.866;2022-12-07T00:11:23;4.10;99.90
5023;DHT22;2530;47.990;7.866;2022-12-07T00:13:53;4.10;99.90
5023;DHT22;2530;47.990;7.866;2022-12-07T00:16:21;4.20;99.90
5023;DHT22;2530;47.990;7.866;2022-12-07T00:18:47;4.20;99.90
5023;DHT22;2530;47.990;7.866;2022-12-07T00:21:13;4.10;99.90
5023;DHT22;2530;47.990;7.866;2022-12-07T00:23:40;4.10;99.90
5023;DHT22;2530;47.990;7.866;2022-12-07T00:26:09;4.10;99.90
5023;DHT22;2530;47.990;7.866;2022-12-07T00:28:35;4.10;99.90
5023;DHT22;2530;47.990;7.866;2022-12-07T00:31:09;4.10;99.90
5023;DHT22;2530;47.990;7.866;2022-12-07T00:33:36;4.30;99.90
5023;DHT22;2530;47.990;7.866;2022-12-07T00:36:05;4.20;99.90
5023;DHT22;2530;47.990;7.866;2022-12-07T00:38:33;4.20;99.90
5023;DHT22;2530;47.990;7.866;2022-12-07T00:41:02;4.40;99.90
5023;DHT22;2530;47.990;7.866;2022-12-07T00:43:28;4.30;99.90
5023;DHT22;2530;47.990;7.866;2022-12-07T00:45:54;4.10;99.90
5023;DHT22;2530;47.990;7.866;2022-12-07T00:48:20;4.00;99.90
5023;DHT22;2530;47.990;7.866;2022-12-07T00:50:47;4.20;99.90
5023;DHT22;2530;47.990;7.866;2022-12-07T00:53:12;4.30;99.90
5023;DHT22;2530;47.990;7.866;2022-12-07T00:55:38;4.40;99.90
5023;DHT22;2530;47.990;7.866;2022-12-07T00:58:04;4.40;99.90
5023;DHT22;2530;47.990;7.866;2022-12-07T01:00:30;4.50;99.90
5023;DHT22;2530;47.990;7.866;2022-12-07T01:02:56;4.30;99.90
5023;DHT22;2530;47.990;7.866;2022-12-07T01:05:21;4.30;99.90
5023;DHT22;2530;47.990;7.866;2022-12-07T01:07:47;4.30;99.90
5023;DHT22;2530;47.990;7.866;2022-12-07T01:10:13;4.20;99.90
5023;DHT22;2530;47.990;7.866;2022-12-07T01:12:39;4.10;99.90
5023;DHT22;2530;47.990;7.866;2022-12-07T01:15:06;4.10;99.90
5023;DHT22;2530;47.990;7.866;2022-12-07T01:17:32;4.20;99.90
5023;DHT22;2530;47.990;7.866;2022-12-07T01:19:57;4.20;99.90
5023;DHT22;2530;47.990;7.866;2022-12-07T01:22:23;4.20;99.90
5023;DHT22;2530;47.990;7.866;2022-12-07T01:24:48;4.20;99.90
5023;DHT22;2530;47.990;7.866;2022-12-07T01:27:14;4.20;99.90
5023;DHT22;2530;47.990;7.866;2022-12-07T01:29:40;4.30;99.90
5023;DHT22;2530;47.990;7.866;2022-12-07T01:32:05;4.30;99.90
5023;DHT22;2530;47.990;7.866;2022-12-07T01:34:31;4.20;99.90
5023;DHT22;2530;47.990;7.866;2022-12-07T01:36:57;4.10;99.90
5023;DHT22;2530;47.990;7.866;2022-12-07T01:39:23;4.10;99.90
5023;DHT22;2530;47.990;7.866;2022-12-07T01:41:49;4.10;99.90
5023;DHT22;2530;47.990;7.866;2022-12-07T01:44:27;4.20;99.90
5023;DHT22;2530;47.990;7.866;2022-12-07T01:46:57;4.30;99.90
5023;DHT22;2530;47.990;7.866;2022-12-07T01:49:36;4.20;99.90
5023;DHT22;2530;47.990;7.866;2022-12-07T01:52:23;4.10;99.90
5023;DHT22;2530;47.990;7.866;2022-12-07T01:54:52;4.30;99.90
5023;DHT22;2530;47.990;7.866;2022-12-07T01:57:19;4.30;99.90
5023;DHT22;2530;47.990;7.866;2022-12-07T01:59:47;4.30;99.90
5023;DHT22;2530;47.990;7.866;2022-12-07T02:02:19;4.30;99.90
5023;DHT22;2530;47.990;7.866;2022-12-07T02:04:46;4.30;99.90
5023;DHT22;2530;47.990;7.866;2022-12-07T02:07:12;4.30;99.90
5023;DHT22;2530;47.990;7.866;2022-12-07T02:09:38;4.30;99.90
5023;DHT22;2530;47.990;7.866;2022-12-07T02:12:04;4.40;99.90
5023;DHT22;2530;47.990;7.866;2022-12-07T02:14:30;4.40;99.90
5023;DHT22;2530;47.990;7.866;2022-12-07T02:23:00;4.30;99.90
5023;DHT22;2530;47.990;7.866;2022-12-07T02:28:35;4.10;99.90
5023;DHT22;2530;47.990;7.866;2022-12-07T02:31:20;4.10;99.90
5023;DHT22;2530;47.990;7.866;2022-12-07T02:33:53;4.10;99.90
5023;DHT22;2530;47.990;7.866;2022-12-07T02:36:26;3.90;99.90
5023;DHT22;2530;47.990;7.866;2022-12-07T02:39:05;4.00;99.90
5023;DHT22;2530;47.990;7.866;2022-12-07T02:41:37;4.10;99.90
5023;DHT22;2530;47.990;7.866;2022-12-07T02:44:08;3.90;99.90
5023;DHT22;2530;47.990;7.866;2022-12-07T02:46:44;4.10;99.90
5023;DHT22;2530;47.990;7.866;2022-12-07T02:49:11;4.00;99.90
5023;DHT22;2530;47.990;7.866;2022-12-07T02:51:42;3.90;99.90
5023;DHT22;2530;47.990;7.866;2022-12-07T02:54:19;4.10;99.90
5023;DHT22;2530;47.990;7.866;2022-12-07T02:56:51;4.10;99.90
5023;DHT22;2530;47.990;7.866;2022-12-07T03:05:06;4.10;99.90
5023;DHT22;2530;47.990;7.866;2022-12-07T03:13:24;3.80;99.90
5023;DHT22;2530;47.990;7.866;2022-12-07T03:18:44;3.80;99.90
5023;DHT22;2530;47.990;7.866;2022-12-07T03:21:15;3.90;99.90
5023;DHT22;2530;47.990;7.866;2022-12-07T03:23:45;4.00;99.90
5023;DHT22;2530;47.990;7.866;2022-12-07T03:26:15;4.00;99.90
5023;DHT22;2530;47.990;7.866;2022-12-07T03:28:48;3.80;99.90
5023;DHT22;2530;47.990;7.866;2022-12-07T03:31:25;3.90;99.90
5023;DHT22;2530;47.990;7.866;2022-12-07T03:42:00;4.00;99.90
5023;DHT22;2530;47.990;7.866;2022-12-07T03:44:27;4.00;99.90
5023;DHT22;2530;47.990;7.866;2022-12-07T03:47:03;4.10;99.90
5023;DHT22;2530;47.990;7.866;2022-12-07T03:55:04;3.90;99.90
5023;DHT22;2530;47.990;7.866;2022-12-07T03:57:28;3.80;99.90
5023;DHT22;2530;47.990;7.866;2022-12-07T03:59:57;3.90;99.90
5023;DHT22;2530;47.990;7.866;2022-12-07T04:02:24;3.90;99.90
5023;DHT22;2530;47.990;7.866;2022-12-07T04:04:51;3.90;99.90
5023;DHT22;2530;47.990;7.866;2022-12-07T04:07:17;3.90;99.90
5023;DHT22;2530;47.990;7.866;2022-12-07T04:09:42;3.80;99.90
5023;DHT22;2530;47.990;7.866;2022-12-07T04:12:08;3.80;99.90
5023;DHT22;2530;47.990;7.866;2022-12-07T04:14:33;3.90;99.90
5023;DHT22;2530;47.990;7.866;2022-12-07T04:16:59;3.80;99.90
5023;DHT22;2530;47.990;7.866;2022-12-07T04:19:35;3.80;99.90
5023;DHT22;2530;47.990;7.866;2022-12-07T04:22:02;3.80;99.90
5023;DHT22;2530;47.990;7.866;2022-12-07T04:24:29;3.80;99.90
5023;DHT22;2530;47.990;7.866;2022-12-07T04:26:54;4.00;99.90
5023;DHT22;2530;47.990;7.866;2022-12-07T04:29:21;3.90;99.90
5023;DHT22;2530;47.990;7.866;2022-12-07T04:31:47;3.80;99.90
5023;DHT22;2530;47.990;7.866;2022-12-07T04:34:13;3.80;99.90
5023;DHT22;2530;47.990;7.866;2022-12-07T04:36:39;3.80;99.90
5023;DHT22;2530;47.990;7.866;2022-12-07T04:39:06;3.80;99.90
5023;DHT22;2530;47.990;7.866;2022-12-07T04:41:32;3.80;99.90
5023;DHT22;2530;47.990;7.866;2022-12-07T04:44:01;3.70;99.90
5023;DHT22;2530;47.990;7.866;2022-12-07T04:46:27;3.70;99.90
5023;DHT22;2530;47.990;7.866;2022-12-07T04:48:54;3.60;99.90
5023;DHT22;2530;47.990;7.866;2022-12-07T04:51:23;3.50;99.90
5023;DHT22;2530;47.990;7.866;2022-12-07T04:53:49;3.50;99.90
5023;DHT22;2530;47.990;7.866;2022-12-07T04:56:15;3.50;99.90
5023;DHT22;2530;47.990;7.866;2022-12-07T04:58:42;3.70;99.90
5023;DHT22;2530;47.990;7.866;2022-12-07T05:01:08;3.60;99.90
5023;DHT22;2530;47.990;7.866;2022-12-07T05:03:36;3.50;99.90
5023;DHT22;2530;47.990;7.866;2022-12-07T05:06:02;3.50;99.90
5023;DHT22;2530;47.990;7.866;2022-12-07T05:08:27;3.50;99.90
5023;DHT22;2530;47.990;7.866;2022-12-07T05:10:53;3.50;99.90
5023;DHT22;2530;47.990;7.866;2022-12-07T05:13:18;3.50;99.90
5023;DHT22;2530;47.990;7.866;2022-12-07T05:15:44;3.40;99.90
5023;DHT22;2530;47.990;7.866;2022-12-07T05:18:10;3.40;99.90
5023;DHT22;2530;47.990;7.866;2022-12-07T05:20:41;3.40;99.90
5023;DHT22;2530;47.990;7.866;2022-12-07T05:23:07;3.40;99.90
5023;DHT22;2530;47.990;7.866;2022-12-07T05:25:33;3.40;99.90
5023;DHT22;2530;47.990;7.866;2022-12-07T05:27:58;3.50;99.90
5023;DHT22;2530;47.990;7.866;2022-12-07T05:30:24;3.30;99.90
5023;DHT22;2530;47.990;7.866;2022-12-07T05:32:50;3.30;99.90
5023;DHT22;2530;47.990;7.866;2022-12-07T05:35:17;3.20;99.90
5023;DHT22;2530;47.990;7.866;2022-12-07T05:37:43;3.20;99.90
5023;DHT22;2530;47.990;7.866;2022-12-07T05:40:10;3.20;99.90
5023;DHT22;2530;47.990;7.866;2022-12-07T05:42:35;3.30;99.90
5023;DHT22;2530;47.990;7.866;2022-12-07T05:45:01;3.30;99.90
5023;DHT22;2530;47.990;7.866;2022-12-07T05:47:27;3.30;99.90
5023;DHT22;2530;47.990;7.866;2022-12-07T05:49:53;3.40;99.90
5023;DHT22;2530;47.990;7.866;2022-12-07T05:52:18;3.40;99.90
5023;DHT22;2530;47.990;7.866;2022-12-07T05:54:44;3.50;99.90
5023;DHT22;2530;47.990;7.866;2022-12-07T05:57:09;3.40;99.90
5023;DHT22;2530;47.990;7.866;2022-12-07T05:59:35;3.30;99.90
5023;DHT22;2530;47.990;7.866;2022-12-07T06:02:04;3.30;99.90
5023;DHT22;2530;47.990;7.866;2022-12-07T06:04:33;3.20;99.90
5023;DHT22;2530;47.990;7.866;2022-12-07T06:06:58;3.30;99.90
5023;DHT22;2530;47.990;7.866;2022-12-07T06:09:25;3.30;99.90
5023;DHT22;2530;47.990;7.866;2022-12-07T06:11:51;3.20;99.90
5023;DHT22;2530;47.990;7.866;2022-12-07T06:14:36;3.10;99.90
5023;DHT22;2530;47.990;7.866;2022-12-07T06:17:01;3.10;99.90
5023;DHT22;2530;47.990;7.866;2022-12-07T06:19:27;2.90;99.90
5023;DHT22;2530;47.990;7.866;2022-12-07T06:21:53;2.90;99.90
5023;DHT22;2530;47.990;7.866;2022-12-07T06:24:18;2.80;99.90
5023;DHT22;2530;47.990;7.866;2022-12-07T06:26:45;2.70;99.90
5023;DHT22;2530;47.990;7.866;2022-12-07T06:29:11;2.70;99.90
5023;DHT22;2530;47.990;7.866;2022-12-07T06:31:37;2.70;99.90
5023;DHT22;2530;47.990;7.866;2022-12-07T06:34:09;2.60;99.90
5023;DHT22;2530;47.990;7.866;2022-12-07T06:36:35;2.70;99.90
5023;DHT22;2530;47.990;7.866;2022-12-07T06:39:00;2.50;99.90
5023;DHT22;2530;47.990;7.866;2022-12-07T06:41:26;2.50;99.90
5023;DHT22;2530;47.990;7.866;2022-12-07T06:43:52;2.50;99.90
5023;DHT22;2530;47.990;7.866;2022-12-07T06:46:18;2.40;99.90
5023;DHT22;2530;47.990;7.866;2022-12-07T06:48:43;2.40;99.90
5023;DHT22;2530;47.990;7.866;2022-12-07T06:51:09;2.40;99.90
5023;DHT22;2530;47.990;7.866;2022-12-07T06:53:35;2.30;99.90
5023;DHT22;2530;47.990;7.866;2022-12-07T06:56:01;2.30;99.90
5023;DHT22;2530;47.990;7.866;2022-12-07T06:58:27;2.30;99.90
5023;DHT22;2530;47.990;7.866;2022-12-07T07:00:52;2.30;99.90
5023;DHT22;2530;47.990;7.866;2022-12-07T07:03:18;2.40;99.90
5023;DHT22;2530;47.990;7.866;2022-12-07T07:05:44;2.40;99.90
5023;DHT22;2530;47.990;7.866;2022-12-07T07:08:10;2.50;99.90
5023;DHT22;2530;47.990;7.866;2022-12-07T07:10:36;2.50;99.90
5023;DHT22;2530;47.990;7.866;2022-12-07T07:13:03;2.60;99.90
5023;DHT22;2530;47.990;7.866;2022-12-07T07:15:29;2.60;99.90
5023;DHT22;2530;47.990;7.866;2022-12-07T07:17:54;2.60;99.90
5023;DHT22;2530;47.990;7.866;2022-12-07T07:20:20;2.60;99.90
5023;DHT22;2530;47.990;7.866;2022-12-07T07:22:45;2.60;99.90
5023;DHT22;2530;47.990;7.866;2022-12-07T07:25:11;2.60;99.90
5023;DHT22;2530;47.990;7.866;2022-12-07T07:27:36;2.50;99.90
5023;DHT22;2530;47.990;7.866;2022-12-07T07:30:03;2.30;99.90
5023;DHT22;2530;47.990;7.866;2022-12-07T07:32:29;2.10;99.90
5023;DHT22;2530;47.990;7.866;2022-12-07T07:34:54;2.00;99.90
5023;DHT22;2530;47.990;7.866;2022-12-07T07:37:20;2.00;99.90
5023;DHT22;2530;47.990;7.866;2022-12-07T07:39:45;2.00;99.90
5023;DHT22;2530;47.990;7.866;2022-12-07T07:42:11;1.90;99.90
5023;DHT22;2530;47.990;7.866;2022-12-07T07:44:37;2.00;99.90
5023;DHT22;2530;47.990;7.866;2022-12-07T07:47:02;2.00;99.90
5023;DHT22;2530;47.990;7.866;2022-12-07T07:49:28;2.00;99.90
5023;DHT22;2530;47.990;7.866;2022-12-07T07:51:54;1.90;99.90
5023;DHT22;2530;47.990;7.866;2022-12-07T07:54:19;1.90;99.90
5023;DHT22;2530;47.990;7.866;2022-12-07T07:56:45;1.80;99.90
5023;DHT22;2530;47.990;7.866;2022-12-07T07:59:10;1.80;99.90
5023;DHT22;2530;47.990;7.866;2022-12-07T08:01:36;1.90;99.90
5023;DHT22;2530;47.990;7.866;2022-12-07T08:04:01;2.00;99.90
5023;DHT22;2530;47.990;7.866;2022-12-07T08:06:27;2.00;99.90
5023;DHT22;2530;47.990;7.866;2022-12-07T08:08:52;2.10;99.90
5023;DHT22;2530;47.990;7.866;2022-12-07T08:11:18;2.10;99.90
5023;DHT22;2530;47.990;7.866;2022-12-07T08:13:46;2.00;99.90
5023;DHT22;2530;47.990;7.866;2022-12-07T08:16:15;2.10;99.90
5023;DHT22;2530;47.990;7.866;2022-12-07T08:18:41;2.10;99.90
5023;DHT22;2530;47.990;7.866;2022-12-07T08:21:09;2.20;99.90
5023;DHT22;2530;47.990;7.866;2022-12-07T08:23:35;2.30;99.90
5023;DHT22;2530;47.990;7.866;2022-12-07T08:26:02;2.30;99.90
5023;DHT22;2530;47.990;7.866;2022-12-07T08:28:29;2.30;99.90
5023;DHT22;2530;47.990;7.866;2022-12-07T08:31:05;2.50;99.90
5023;DHT22;2530;47.990;7.866;2022-12-07T08:33:31;2.60;99.90
5023;DHT22;2530;47.990;7.866;2022-12-07T08:36:05;2.50;99.90
5023;DHT22;2530;47.990;7.866;2022-12-07T08:38:31;2.70;99.90
5023;DHT22;2530;47.990;7.866;2022-12-07T08:40:57;2.80;99.90
5023;DHT22;2530;47.990;7.866;2022-12-07T08:43:23;3.00;99.90
5023;DHT22;2530;47.990;7.866;2022-12-07T08:48:52;3.30;99.90
5023;DHT22;2530;47.990;7.866;2022-12-07T08:51:19;3.30;99.90
5023;DHT22;2530;47.990;7.866;2022-12-07T08:53:46;3.30;99.90
5023;DHT22;2530;47.990;7.866;2022-12-07T08:56:11;3.50;99.90
5023;DHT22;2530;47.990;7.866;2022-12-07T08:58:38;3.40;99.90
5023;DHT22;2530;47.990;7.866;2022-12-07T09:01:05;3.40;99.90
5023;DHT22;2530;47.990;7.866;2022-12-07T09:03:31;3.60;99.90
5023;DHT22;2530;47.990;7.866;2022-12-07T09:05:57;3.70;99.90
5023;DHT22;2530;47.990;7.866;2022-12-07T09:08:28;3.60;99.90
5023;DHT22;2530;47.990;7.866;2022-12-07T09:10:55;3.60;99.90
5023;DHT22;2530;47.990;7.866;2022-12-07T09:13:20;3.60;99.90
5023;DHT22;2530;47.990;7.866;2022-12-07T09:15:46;3.60;99.90
5023;DHT22;2530;47.990;7.866;2022-12-07T09:18:11;3.50;99.90
5023;DHT22;2530;47.990;7.866;2022-12-07T09:20:37;3.60;99.90
5023;DHT22;2530;47.990;7.866;2022-12-07T09:23:05;3.50;99.90
5023;DHT22;2530;47.990;7.866;2022-12-07T09:25:31;3.50;99.90
5023;DHT22;2530;47.990;7.866;2022-12-07T09:27:57;3.50;99.90
5023;DHT22;2530;47.990;7.866;2022-12-07T09:30:24;3.60;99.90
5023;DHT22;2530;47.990;7.866;2022-12-07T09:32:50;3.60;99.90
5023;DHT22;2530;47.990;7.866;2022-12-07T09:35:15;3.70;99.90
5023;DHT22;2530;47.990;7.866;2022-12-07T09:37:41;3.80;99.90
5023;DHT22;2530;47.990;7.866;2022-12-07T09:40:07;4.00;99.90
5023;DHT22;2530;47.990;7.866;2022-12-07T09:42:38;4.00;99.90
5023;DHT22;2530;47.990;7.866;2022-12-07T09:45:10;3.90;99.90
5023;DHT22;2530;47.990;7.866;2022-12-07T09:47:37;3.90;99.90
5023;DHT22;2530;47.990;7.866;2022-12-07T09:50:15;3.90;99.90
5023;DHT22;2530;47.990;7.866;2022-12-07T09:52:43;4.00;99.90
5023;DHT22;2530;47.990;7.866;2022-12-07T09:55:15;4.10;99.90
5023;DHT22;2530;47.990;7.866;2022-12-07T09:57:42;4.20;99.90
5023;DHT22;2530;47.990;7.866;2022-12-07T10:00:16;4.30;99.90
5023;DHT22;2530;47.990;7.866;2022-12-07T10:02:46;4.40;99.90
5023;DHT22;2530;47.990;7.866;2022-12-07T10:05:32;4.30;99.90
5023;DHT22;2530;47.990;7.866;2022-12-07T10:07:59;4.50;99.90
5023;DHT22;2530;47.990;7.866;2022-12-07T10:10:31;4.60;99.90
5023;DHT22;2530;47.990;7.866;2022-12-07T10:13:00;4.60;99.90
5023;DHT22;2530;47.990;7.866;2022-12-07T10:15:54;4.80;99.90
5023;DHT22;2530;47.990;7.866;2022-12-07T10:18:33;4.80;99.90
5023;DHT22;2530;47.990;7.866;2022-12-07T10:23:42;4.80;99.90
5023;DHT22;2530;47.990;7.866;2022-12-07T10:26:27;5.00;99.90
5023;DHT22;2530;47.990;7.866;2022-12-07T10:28:54;5.10;99.90
5023;DHT22;2530;47.990;7.866;2022-12-07T10:31:22;5.10;99.90
5023;DHT22;2530;47.990;7.866;2022-12-07T10:38:49;5.20;99.90
5023;DHT22;2530;47.990;7.866;2022-12-07T10:41:15;5.50;99.90
5023;DHT22;2530;47.990;7.866;2022-12-07T10:43:50;5.70;99.90
5023;DHT22;2530;47.990;7.866;2022-12-07T10:49:11;6.00;99.90
5023;DHT22;2530;47.990;7.866;2022-12-07T10:57:00;6.10;98.90
5023;DHT22;2530;47.990;7.866;2022-12-07T11:00:36;6.40;99.90
5023;DHT22;2530;47.990;7.866;2022-12-07T11:02:43;6.80;96.70
5023;DHT22;2530;47.990;7.866;2022-12-07T11:10:50;7.80;92.70
5023;DHT22;2530;47.990;7.866;2022-12-07T11:15:53;8.30;88.90
5023;DHT22;2530;47.990;7.866;2022-12-07T11:18:27;9.00;77.90
5023;DHT22;2530;47.990;7.866;2022-12-07T11:21:17;9.20;75.40
5023;DHT22;2530;47.990;7.866;2022-12-07T11:23:48;9.50;75.30
5023;DHT22;2530;47.990;7.866;2022-12-07T11:32:42;10.50;58.00
5023;DHT22;2530;47.990;7.866;2022-12-07T11:35:37;10.20;51.30
5023;DHT22;2530;47.990;7.866;2022-12-07T11:38:13;11.30;51.10
5023;DHT22;2530;47.990;7.866;2022-12-07T11:40:40;10.50;52.60
5023;DHT22;2530;47.990;7.866;2022-12-07T11:43:27;9.80;52.40
5023;DHT22;2530;47.990;7.866;2022-12-07T11:46:03;10.20;49.90
5023;DHT22;2530;47.990;7.866;2022-12-07T11:48:40;10.80;46.20
5023;DHT22;2530;47.990;7.866;2022-12-07T11:51:10;10.90;46.30
5023;DHT22;2530;47.990;7.866;2022-12-07T11:53:52;11.00;45.00
5023;DHT22;2530;47.990;7.866;2022-12-07T11:56:23;11.60;45.20
5023;DHT22;2530;47.990;7.866;2022-12-07T11:58:58;11.50;44.20
5023;DHT22;2530;47.990;7.866;2022-12-07T12:06:42;11.40;44.10
5023;DHT22;2530;47.990;7.866;2022-12-07T12:09:21;10.50;45.50
5023;DHT22;2530;47.990;7.866;2022-12-07T12:23:22;8.30;50.90
5023;DHT22;2530;47.990;7.866;2022-12-07T12:25:55;8.40;53.80
5023;DHT22;2530;47.990;7.866;2022-12-07T12:33:49;8.00;55.20
5023;DHT22;2530;47.990;7.866;2022-12-07T12:49:33;6.90;70.10
5023;DHT22;2530;47.990;7.866;2022-12-07T12:57:27;7.00;80.50
5023;DHT22;2530;47.990;7.866;2022-12-07T13:02:26;7.00;82.70
5023;DHT22;2530;47.990;7.866;2022-12-07T13:29:17;6.80;92.20
5023;DHT22;2530;47.990;7.866;2022-12-07T13:36:54;6.90;89.00
5023;DHT22;2530;47.990;7.866;2022-12-07T13:39:22;6.90;90.90
5023;DHT22;2530;47.990;7.866;2022-12-07T13:41:53;6.90;90.30
5023;DHT22;2530;47.990;7.866;2022-12-07T13:44:19;6.90;88.50
5023;DHT22;2530;47.990;7.866;2022-12-07T13:47:19;6.90;88.40
5023;DHT22;2530;47.990;7.866;2022-12-07T13:49:50;6.90;90.00
5023;DHT22;2530;47.990;7.866;2022-12-07T13:52:19;6.80;91.60
5023;DHT22;2530;47.990;7.866;2022-12-07T13:54:55;6.70;94.80
5023;DHT22;2530;47.990;7.866;2022-12-07T13:57:21;6.70;91.30
5023;DHT22;2530;47.990;7.866;2022-12-07T13:59:47;6.80;91.90
5023;DHT22;2530;47.990;7.866;2022-12-07T14:02:24;6.70;92.00
5023;DHT22;2530;47.990;7.866;2022-12-07T14:04:51;6.80;92.60
5023;DHT22;2530;47.990;7.866;2022-12-07T14:07:28;6.90;92.20
5023;DHT22;2530;47.990;7.866;2022-12-07T14:10:05;6.90;92.30
5023;DHT22;2530;47.990;7.866;2022-12-07T14:12:32;7.00;91.60
5023;DHT22;2530;47.990;7.866;2022-12-07T14:15:02;6.50;90.80
5023;DHT22;2530;47.990;7.866;2022-12-07T14:17:28;6.80;91.40
5023;DHT22;2530;47.990;7.866;2022-12-07T14:19:58;6.90;91.70
5023;DHT22;2530;47.990;7.866;2022-12-07T14:25:01;6.80;91.90
5023;DHT22;2530;47.990;7.866;2022-12-07T14:27:32;6.90;91.50
5023;DHT22;2530;47.990;7.866;2022-12-07T14:30:00;6.80;91.90
5023;DHT22;2530;47.990;7.866;2022-12-07T14:32:28;7.00;91.40
5023;DHT22;2530;47.990;7.866;2022-12-07T14:37:25;6.80;94.10
5023;DHT22;2530;47.990;7.866;2022-12-07T14:39:50;6.50;93.70
5023;DHT22;2530;47.990;7.866;2022-12-07T14:42:16;6.40;95.70
5023;DHT22;2530;47.990;7.866;2022-12-07T14:44:42;6.30;99.90
5023;DHT22;2530;47.990;7.866;2022-12-07T14:47:11;6.30;95.90
5023;DHT22;2530;47.990;7.866;2022-12-07T14:49:37;6.20;96.10
5023;DHT22;2530;47.990;7.866;2022-12-07T14:52:03;6.20;96.60
5023;DHT22;2530;47.990;7.866;2022-12-07T14:54:31;6.20;98.10
5023;DHT22;2530;47.990;7.866;2022-12-07T14:56:58;6.10;97.40
5023;DHT22;2530;47.990;7.866;2022-12-07T14:59:23;6.00;96.00
5023;DHT22;2530;47.990;7.866;2022-12-07T15:01:49;6.00;95.40
5023;DHT22;2530;47.990;7.866;2022-12-07T15:04:15;5.80;95.40
5023;DHT22;2530;47.990;7.866;2022-12-07T15:06:40;5.70;96.00
5023;DHT22;2530;47.990;7.866;2022-12-07T15:09:10;5.70;96.00
5023;DHT22;2530;47.990;7.866;2022-12-07T15:11:36;5.70;96.70
5023;DHT22;2530;47.990;7.866;2022-12-07T15:14:01;5.70;95.70
5023;DHT22;2530;47.990;7.866;2022-12-07T15:16:33;5.60;98.10
5023;DHT22;2530;47.990;7.866;2022-12-07T15:18:59;5.80;96.30
5023;DHT22;2530;47.990;7.866;2022-12-07T15:21:25;5.60;96.70
5023;DHT22;2530;47.990;7.866;2022-12-07T15:23:50;5.50;99.60
5023;DHT22;2530;47.990;7.866;2022-12-07T15:26:16;5.60;99.80
5023;DHT22;2530;47.990;7.866;2022-12-07T15:28:41;5.70;98.70
5023;DHT22;2530;47.990;7.866;2022-12-07T15:31:12;5.70;99.20
5023;DHT22;2530;47.990;7.866;2022-12-07T15:33:38;5.60;99.60
5023;DHT22;2530;47.990;7.866;2022-12-07T15:36:04;5.60;99.90
5023;DHT22;2530;47.990;7.866;2022-12-07T15:38:30;5.60;99.90
5023;DHT22;2530;47.990;7.866;2022-12-07T15:40:56;5.30;99.90
5023;DHT22;2530;47.990;7.866;2022-12-07T15:43:22;5.40;99.90
5023;DHT22;2530;47.990;7.866;2022-12-07T15:46:06;5.30;99.90
5023;DHT22;2530;47.990;7.866;2022-12-07T15:48:31;5.10;99.90
5023;DHT22;2530;47.990;7.866;2022-12-07T15:51:07;5.20;99.90
5023;DHT22;2530;47.990;7.866;2022-12-07T15:53:33;5.20;99.90
5023;DHT22;2530;47.990;7.866;2022-12-07T15:55:59;5.10;99.90
5023;DHT22;2530;47.990;7.866;2022-12-07T15:58:25;5.00;99.90
5023;DHT22;2530;47.990;7.866;2022-12-07T16:00:51;4.80;99.90
5023;DHT22;2530;47.990;7.866;2022-12-07T16:03:16;4.80;99.90
5023;DHT22;2530;47.990;7.866;2022-12-07T16:05:42;4.80;99.90
5023;DHT22;2530;47.990;7.866;2022-12-07T16:08:13;4.70;99.90
5023;DHT22;2530;47.990;7.866;2022-12-07T16:10:38;4.60;99.90
5023;DHT22;2530;47.990;7.866;2022-12-07T16:13:07;4.60;99.90
5023;DHT22;2530;47.990;7.866;2022-12-07T16:15:32;4.70;99.90
5023;DHT22;2530;47.990;7.866;2022-12-07T16:17:58;4.50;99.90
5023;DHT22;2530;47.990;7.866;2022-12-07T16:20:23;4.50;99.90
5023;DHT22;2530;47.990;7.866;2022-12-07T16:22:51;4.50;99.90
5023;DHT22;2530;47.990;7.866;2022-12-07T16:25:18;4.20;99.90
5023;DHT22;2530;47.990;7.866;2022-12-07T16:27:43;4.00;99.90
5023;DHT22;2530;47.990;7.866;2022-12-07T16:30:11;4.00;99.90
5023;DHT22;2530;47.990;7.866;2022-12-07T16:32:37;4.00;99.90
5023;DHT22;2530;47.990;7.866;2022-12-07T16:35:03;3.90;99.90
5023;DHT22;2530;47.990;7.866;2022-12-07T16:37:28;3.80;99.90
5023;DHT22;2530;47.990;7.866;2022-12-07T16:39:54;3.70;99.90
5023;DHT22;2530;47.990;7.866;2022-12-07T16:42:19;3.60;99.90
5023;DHT22;2530;47.990;7.866;2022-12-07T16:44:45;3.40;99.90
5023;DHT22;2530;47.990;7.866;2022-12-07T16:47:10;3.40;99.90
5023;DHT22;2530;47.990;7.866;2022-12-07T16:49:36;3.40;99.90
5023;DHT22;2530;47.990;7.866;2022-12-07T16:52:01;3.40;99.90
5023;DHT22;2530;47.990;7.866;2022-12-07T16:54:27;3.30;99.90
5023;DHT22;2530;47.990;7.866;2022-12-07T16:56:56;3.30;99.90
5023;DHT22;2530;47.990;7.866;2022-12-07T16:59:21;3.10;99.90
5023;DHT22;2530;47.990;7.866;2022-12-07T17:01:47;3.00;99.90
5023;DHT22;2530;47.990;7.866;2022-12-07T17:04:12;3.00;99.90
5023;DHT22;2530;47.990;7.866;2022-12-07T17:06:38;3.00;99.90
5023;DHT22;2530;47.990;7.866;2022-12-07T17:09:03;2.80;99.90
5023;DHT22;2530;47.990;7.866;2022-12-07T17:11:34;2.70;99.90
5023;DHT22;2530;47.990;7.866;2022-12-07T17:14:00;2.70;99.90
5023;DHT22;2530;47.990;7.866;2022-12-07T17:16:44;2.70;99.90
5023;DHT22;2530;47.990;7.866;2022-12-07T17:19:13;2.70;99.90
5023;DHT22;2530;47.990;7.866;2022-12-07T17:21:40;2.60;99.90
5023;DHT22;2530;47.990;7.866;2022-12-07T17:24:08;2.60;99.90
5023;DHT22;2530;47.990;7.866;2022-12-07T17:26:34;2.60;99.90
5023;DHT22;2530;47.990;7.866;2022-12-07T17:29:00;2.60;99.90
5023;DHT22;2530;47.990;7.866;2022-12-07T17:31:26;2.60;99.90
5023;DHT22;2530;47.990;7.866;2022-12-07T17:33:52;2.50;99.90
5023;DHT22;2530;47.990;7.866;2022-12-07T17:36:23;2.60;99.90
5023;DHT22;2530;47.990;7.866;2022-12-07T17:38:49;2.60;99.90
5023;DHT22;2530;47.990;7.866;2022-12-07T17:41:27;2.50;99.90
5023;DHT22;2530;47.990;7.866;2022-12-07T17:44:13;2.50;99.90
5023;DHT22;2530;47.990;7.866;2022-12-07T17:46:40;2.40;99.90
5023;DHT22;2530;47.990;7.866;2022-12-07T17:49:06;2.40;99.90
5023;DHT22;2530;47.990;7.866;2022-12-07T17:51:32;2.30;99.90
5023;DHT22;2530;47.990;7.866;2022-12-07T17:54:16;2.30;99.90
5023;DHT22;2530;47.990;7.866;2022-12-07T17:56:43;2.30;99.90
5023;DHT22;2530;47.990;7.866;2022-12-07T17:59:09;2.40;99.90
5023;DHT22;2530;47.990;7.866;2022-12-07T18:01:35;2.40;99.90
5023;DHT22;2530;47.990;7.866;2022-12-07T18:04:01;2.40;99.90
5023;DHT22;2530;47.990;7.866;2022-12-07T18:06:27;2.40;99.90
5023;DHT22;2530;47.990;7.866;2022-12-07T18:08:52;2.30;99.90
5023;DHT22;2530;47.990;7.866;2022-12-07T18:11:18;2.20;99.90
5023;DHT22;2530;47.990;7.866;2022-12-07T18:13:44;2.30;99.90
5023;DHT22;2530;47.990;7.866;2022-12-07T18:16:15;2.30;99.90
5023;DHT22;2530;47.990;7.866;2022-12-07T18:18:42;2.20;99.90
5023;DHT22;2530;47.990;7.866;2022-12-07T18:21:16;2.20;99.90
5023;DHT22;2530;47.990;7.866;2022-12-07T18:23:43;2.20;99.90
5023;DHT22;2530;47.990;7.866;2022-12-07T18:26:10;2.10;99.90
5023;DHT22;2530;47.990;7.866;2022-12-07T18:28:36;2.00;99.90
5023;DHT22;2530;47.990;7.866;2022-12-07T18:31:01;1.90;99.90
5023;DHT22;2530;47.990;7.866;2022-12-07T18:33:27;1.90;99.90
5023;DHT22;2530;47.990;7.866;2022-12-07T18:35:52;1.90;99.90
5023;DHT22;2530;47.990;7.866;2022-12-07T18:38:18;1.90;99.90
5023;DHT22;2530;47.990;7.866;2022-12-07T18:40:44;1.80;99.90
5023;DHT22;2530;47.990;7.866;2022-12-07T18:43:11;1.70;99.90
5023;DHT22;2530;47.990;7.866;2022-12-07T18:45:39;1.60;99.90
5023;DHT22;2530;47.990;7.866;2022-12-07T18:48:06;1.50;99.90
5023;DHT22;2530;47.990;7.866;2022-12-07T18:50:33;1.60;99.90
5023;DHT22;2530;47.990;7.866;2022-12-07T18:53:03;1.50;99.90